Time;durP1;ratioP1;P1;durP2;ratioP2;P2;SDS_P1;SDS_P2;PMS_P1;PMS_P2;Temp;Humidity;BMP_temperature;BMP_pressure;BME280_temperature;BME280_humidity;BME280_pressure;Samples;Min_cycle;Max_cycle;Signal;HPM_P1;HPM_P2
2023/12/30 00:00:24;;;;;;;1.70;1.60;;;9.70;57.90;;;;;;5047972;28;20199;-68
2023/12/30 00:02:50;;;;;;;1.80;1.70;;;9.60;58.30;;;;;;5050074;28;20208;-69
2023/12/30 00:05:17;;;;;;;1.80;1.70;;;9.70;58.10;;;;;;5050964;28;20287;-69
2023/12/30 00:07:44;;;;;;;2.30;1.70;;;9.70;58.00;;;;;;5052851;28;20234;-69
2023/12/30 00:10:10;;;;;;;2.00;1.80;;;9.70;57.80;;;;;;5050782;28;20276;-69
2023/12/30 00:12:37;;;;;;;1.90;1.80;;;9.70;57.80;;;;;;5052858;28;20674;-69
2023/12/30 00:15:03;;;;;;;1.90;1.80;;;9.70;57.80;;;;;;5044131;28;20300;-69
2023/12/30 00:17:30;;;;;;;2.03;1.93;;;9.70;57.80;;;;;;5051049;28;20246;-69
2023/12/30 00:19:56;;;;;;;1.80;1.70;;;9.60;57.80;;;;;;5051943;28;20203;-69
2023/12/30 00:22:23;;;;;;;1.80;1.70;;;9.50;58.10;;;;;;5051015;28;20206;-70
2023/12/30 00:24:50;;;;;;;1.80;1.70;;;9.50;58.20;;;;;;5050652;28;20273;-69
2023/12/30 00:27:16;;;;;;;1.60;1.60;;;9.50;58.40;;;;;;5047218;28;20242;-69
2023/12/30 00:29:43;;;;;;;1.60;1.50;;;9.50;58.20;;;;;;5047167;28;20639;-69
2023/12/30 00:32:10;;;;;;;1.73;1.63;;;9.50;58.40;;;;;;5052513;28;20213;-69
2023/12/30 00:34:36;;;;;;;2.13;1.90;;;9.50;58.40;;;;;;5047171;28;20206;-69
2023/12/30 00:37:03;;;;;;;1.60;1.50;;;9.40;59.00;;;;;;5050601;28;20291;-69
2023/12/30 00:39:29;;;;;;;2.07;1.97;;;9.40;58.40;;;;;;5048366;28;20234;-69
2023/12/30 00:41:56;;;;;;;2.20;1.93;;;9.40;58.40;;;;;;5040719;28;20668;-70
2023/12/30 00:44:23;;;;;;;1.90;1.80;;;9.40;58.40;;;;;;5043962;28;20218;-70
2023/12/30 00:46:49;;;;;;;1.80;1.70;;;9.30;58.60;;;;;;5043460;28;20228;-69
2023/12/30 00:49:16;;;;;;;1.93;1.83;;;9.30;58.70;;;;;;5051163;28;20236;-69
2023/12/30 00:51:42;;;;;;;1.83;1.73;;;9.30;58.90;;;;;;5043106;28;20210;-69
2023/12/30 00:54:09;;;;;;;1.77;1.67;;;9.30;59.10;;;;;;5050170;28;20619;-69
2023/12/30 00:56:35;;;;;;;1.70;1.60;;;9.30;59.10;;;;;;5044024;28;20671;-69
2023/12/30 00:59:02;;;;;;;1.90;1.80;;;9.30;59.30;;;;;;5038710;28;21031;-69
2023/12/30 01:01:29;;;;;;;1.70;1.60;;;9.30;59.10;;;;;;5044820;28;20212;-69
2023/12/30 01:03:55;;;;;;;1.90;1.80;;;9.30;59.20;;;;;;5043295;28;20211;-70
2023/12/30 01:06:22;;;;;;;1.73;1.50;;;9.30;59.20;;;;;;5048228;28;20249;-69
2023/12/30 01:08:49;;;;;;;2.07;1.90;;;9.20;59.10;;;;;;5045901;28;20311;-69
2023/12/30 01:11:15;;;;;;;1.90;1.80;;;9.20;59.40;;;;;;5047332;28;20213;-70
2023/12/30 01:13:42;;;;;;;2.03;1.80;;;9.20;59.20;;;;;;5040418;28;20747;-69
2023/12/30 01:16:09;;;;;;;2.00;1.90;;;9.20;59.10;;;;;;5037976;28;20767;-69
2023/12/30 01:18:35;;;;;;;2.00;1.80;;;9.20;59.20;;;;;;5047002;28;20237;-69
2023/12/30 01:21:03;;;;;;;2.10;1.90;;;9.20;59.20;;;;;;5050927;28;20361;-70
2023/12/30 01:23:30;;;;;;;2.00;1.90;;;9.20;59.10;;;;;;5044393;28;20202;-69
2023/12/30 01:25:56;;;;;;;2.00;1.90;;;9.20;59.00;;;;;;5044050;28;20287;-69
2023/12/30 01:28:23;;;;;;;2.20;2.10;;;9.30;59.10;;;;;;5051452;28;20210;-69
2023/12/30 01:30:49;;;;;;;1.90;1.80;;;9.20;59.20;;;;;;5051427;28;20239;-69
2023/12/30 01:33:16;;;;;;;1.80;1.70;;;9.20;59.30;;;;;;5047868;28;20279;-69
2023/12/30 01:35:42;;;;;;;2.07;1.90;;;9.20;59.40;;;;;;5045569;28;20257;-69
2023/12/30 01:38:09;;;;;;;2.00;1.90;;;9.20;59.60;;;;;;5050147;28;20221;-68
2023/12/30 01:40:35;;;;;;;2.20;2.00;;;9.20;59.40;;;;;;5048912;28;20252;-69
2023/12/30 01:43:04;;;;;;;1.90;1.80;;;9.20;59.50;;;;;;5045868;28;20233;-68
2023/12/30 01:45:31;;;;;;;1.90;1.80;;;9.20;59.40;;;;;;5050297;28;20221;-69
2023/12/30 01:47:58;;;;;;;2.00;1.90;;;9.20;59.60;;;;;;5050261;28;20684;-69
2023/12/30 01:50:24;;;;;;;2.20;2.00;;;9.10;59.70;;;;;;5049607;28;20206;-69
2023/12/30 01:52:51;;;;;;;1.90;1.80;;;9.10;59.70;;;;;;5050063;28;20230;-69
2023/12/30 01:55:17;;;;;;;2.40;2.13;;;9.10;60.10;;;;;;5051014;28;20250;-70
2023/12/30 01:57:44;;;;;;;2.10;2.00;;;9.00;59.80;;;;;;5044231;28;20707;-69
2023/12/30 02:00:10;;;;;;;3.23;2.03;;;9.00;59.60;;;;;;5047724;28;20286;-69
2023/12/30 02:02:37;;;;;;;1.80;1.70;;;9.00;59.60;;;;;;5051194;28;20201;-69
2023/12/30 02:05:04;;;;;;;2.30;2.20;;;9.00;59.70;;;;;;5047943;28;20228;-68
2023/12/30 02:07:30;;;;;;;1.90;1.80;;;9.00;59.20;;;;;;5050746;28;20204;-70
2023/12/30 02:09:57;;;;;;;2.10;2.00;;;9.00;59.20;;;;;;5047465;28;20205;-69
2023/12/30 02:12:24;;;;;;;2.20;2.00;;;9.00;59.10;;;;;;5044563;28;20243;-69
2023/12/30 02:14:50;;;;;;;2.40;2.20;;;8.90;59.10;;;;;;5051724;28;20213;-69
2023/12/30 02:17:17;;;;;;;1.90;1.80;;;8.90;59.20;;;;;;5047269;28;20253;-69
2023/12/30 02:19:43;;;;;;;2.67;2.47;;;9.00;58.80;;;;;;5054835;28;20748;-69
2023/12/30 02:22:10;;;;;;;2.30;2.10;;;9.00;58.70;;;;;;5053474;28;20300;-69
2023/12/30 02:24:37;;;;;;;2.87;2.60;;;8.90;58.80;;;;;;5047433;28;20296;-69
2023/12/30 02:27:03;;;;;;;2.03;1.93;;;8.90;58.70;;;;;;5054436;28;20198;-69
2023/12/30 02:29:30;;;;;;;2.47;2.20;;;8.90;58.80;;;;;;5052078;28;20240;-68
2023/12/30 02:31:56;;;;;;;1.97;1.87;;;8.80;58.40;;;;;;5054811;28;20239;-69
2023/12/30 02:34:23;;;;;;;2.50;2.30;;;8.80;58.40;;;;;;5044382;28;20236;-69
2023/12/30 02:36:49;;;;;;;2.83;2.63;;;8.90;58.30;;;;;;5050346;28;20264;-69
2023/12/30 02:39:16;;;;;;;2.37;2.20;;;8.80;58.40;;;;;;5049588;28;20236;-69
2023/12/30 02:41:43;;;;;;;2.83;2.37;;;8.90;58.30;;;;;;5053485;28;20270;-69
2023/12/30 02:44:09;;;;;;;2.60;2.40;;;8.80;58.40;;;;;;5046184;28;20206;-69
2023/12/30 02:46:36;;;;;;;2.10;2.00;;;8.80;58.40;;;;;;5046611;28;20243;-69
2023/12/30 02:49:04;;;;;;;1.97;1.87;;;8.80;58.60;;;;;;5053879;28;20237;-69
2023/12/30 02:51:31;;;;;;;2.00;1.90;;;8.80;58.80;;;;;;5050960;28;20221;-69
2023/12/30 02:53:57;;;;;;;2.20;2.10;;;8.80;58.80;;;;;;5045871;28;20206;-69
2023/12/30 02:56:24;;;;;;;2.63;2.43;;;8.70;58.80;;;;;;5050549;28;20227;-70
2023/12/30 02:58:51;;;;;;;2.40;2.20;;;8.70;58.90;;;;;;5049506;28;20233;-69
2023/12/30 03:01:17;;;;;;;2.30;2.20;;;8.70;59.10;;;;;;5053444;28;20231;-69
2023/12/30 03:03:44;;;;;;;2.30;2.10;;;8.70;59.20;;;;;;5054172;28;20202;-70
2023/12/30 03:06:10;;;;;;;2.20;2.00;;;8.70;59.10;;;;;;5045585;28;20656;-69
2023/12/30 03:08:37;;;;;;;2.30;2.20;;;8.70;59.30;;;;;;5051052;28;20205;-69
2023/12/30 03:11:04;;;;;;;2.30;2.20;;;8.60;59.30;;;;;;5053173;28;20252;-69
2023/12/30 03:13:31;;;;;;;2.47;2.23;;;8.60;59.40;;;;;;5049071;28;20205;-70
2023/12/30 03:15:58;;;;;;;2.43;2.23;;;8.60;59.50;;;;;;5043065;28;20585;-69
2023/12/30 03:18:24;;;;;;;2.40;2.30;;;8.60;59.60;;;;;;5052587;28;20225;-69
2023/12/30 03:20:51;;;;;;;2.53;2.33;;;8.60;59.70;;;;;;5053064;28;20253;-69
2023/12/30 03:23:18;;;;;;;2.67;2.47;;;8.60;60.10;;;;;;5050737;28;20277;-69
2023/12/30 03:25:44;;;;;;;2.40;2.20;;;8.60;60.20;;;;;;5046397;28;20218;-69
2023/12/30 03:28:11;;;;;;;2.37;2.27;;;8.60;60.30;;;;;;5053538;28;20679;-69
2023/12/30 03:30:37;;;;;;;3.00;2.80;;;8.60;60.60;;;;;;5051501;28;20230;-69
2023/12/30 03:33:04;;;;;;;2.77;2.47;;;8.60;60.30;;;;;;5046914;28;20282;-69
2023/12/30 03:35:32;;;;;;;2.10;2.00;;;8.60;60.50;;;;;;5062128;28;20229;-70
2023/12/30 03:37:58;;;;;;;2.30;2.10;;;8.60;60.60;;;;;;5052444;28;20253;-69
2023/12/30 03:40:25;;;;;;;2.10;2.00;;;8.50;60.80;;;;;;5045971;28;20255;-69
2023/12/30 03:42:51;;;;;;;2.60;2.40;;;8.50;60.90;;;;;;5051368;28;20210;-69
2023/12/30 03:45:18;;;;;;;2.50;2.30;;;8.50;61.20;;;;;;5043492;28;20646;-69
2023/12/30 03:47:44;;;;;;;2.63;2.43;;;8.50;61.10;;;;;;5046722;28;20736;-69
2023/12/30 03:50:11;;;;;;;2.53;2.37;;;8.50;61.10;;;;;;5043689;28;20218;-69
2023/12/30 03:52:38;;;;;;;2.53;2.43;;;8.50;61.10;;;;;;5052970;28;20215;-69
2023/12/30 03:55:04;;;;;;;2.60;2.40;;;8.50;60.90;;;;;;5042267;28;20288;-69
2023/12/30 03:57:31;;;;;;;2.60;2.40;;;8.50;60.80;;;;;;5044544;28;20236;-68
2023/12/30 03:59:58;;;;;;;2.90;2.57;;;8.50;60.70;;;;;;5050921;28;20228;-69
2023/12/30 04:02:24;;;;;;;2.70;2.60;;;8.50;60.60;;;;;;5052123;28;20202;-69
2023/12/30 04:04:51;;;;;;;2.50;2.33;;;8.50;61.00;;;;;;5053198;28;20201;-69
2023/12/30 04:07:17;;;;;;;2.47;2.37;;;8.40;61.00;;;;;;5053282;28;20240;-69
2023/12/30 04:09:44;;;;;;;2.50;2.30;;;8.40;61.00;;;;;;5050705;28;20232;-69
2023/12/30 04:12:10;;;;;;;2.73;2.53;;;8.40;60.90;;;;;;5050531;28;20213;-69
2023/12/30 04:14:37;;;;;;;2.60;2.40;;;8.40;60.60;;;;;;5051161;28;20282;-69
2023/12/30 04:17:03;;;;;;;2.40;2.27;;;8.50;60.50;;;;;;5051891;28;20256;-69
2023/12/30 04:19:30;;;;;;;2.83;2.50;;;8.50;60.60;;;;;;5051808;28;20263;-69
2023/12/30 04:21:57;;;;;;;3.27;2.40;;;8.40;60.50;;;;;;5052318;28;20197;-69
2023/12/30 04:24:23;;;;;;;2.70;2.50;;;8.40;60.50;;;;;;5048891;28;20255;-69
2023/12/30 04:26:51;;;;;;;2.10;2.00;;;8.40;60.40;;;;;;5047971;28;20298;-69
2023/12/30 04:29:17;;;;;;;2.80;2.60;;;8.40;60.30;;;;;;5050146;28;20202;-69
2023/12/30 04:31:44;;;;;;;2.73;2.53;;;8.40;60.50;;;;;;5050227;28;20260;-69
2023/12/30 04:34:10;;;;;;;2.53;2.33;;;8.30;60.00;;;;;;5049606;28;20255;-69
2023/12/30 04:36:37;;;;;;;2.80;2.60;;;8.40;60.00;;;;;;5044067;28;20282;-69
2023/12/30 04:39:05;;;;;;;2.77;2.57;;;8.30;60.00;;;;;;5042490;28;20529;-69
2023/12/30 04:41:31;;;;;;;2.57;2.37;;;8.30;59.80;;;;;;5044713;28;20205;-69
2023/12/30 04:43:58;;;;;;;2.37;2.27;;;8.30;59.40;;;;;;5051853;28;20264;-69
2023/12/30 04:46:24;;;;;;;2.70;2.50;;;8.30;59.40;;;;;;5038539;28;20231;-69
2023/12/30 04:48:54;;;;;;;3.17;2.67;;;8.30;58.90;;;;;;5051439;28;20282;-69
2023/12/30 04:51:20;;;;;;;2.83;2.60;;;8.30;58.80;;;;;;5046146;28;20205;-69
2023/12/30 04:53:47;;;;;;;2.27;2.07;;;8.30;58.50;;;;;;5051770;28;20667;-69
2023/12/30 04:56:13;;;;;;;3.10;2.57;;;8.30;58.40;;;;;;5050785;28;20253;-69
2023/12/30 04:58:40;;;;;;;2.57;2.40;;;8.30;58.10;;;;;;5046501;28;20339;-69
2023/12/30 05:01:08;;;;;;;2.83;2.13;;;8.30;57.40;;;;;;5042155;28;20672;-69
2023/12/30 05:03:34;;;;;;;2.83;2.10;;;8.30;57.40;;;;;;5039881;28;20212;-69
2023/12/30 05:06:01;;;;;;;2.13;2.03;;;8.40;57.60;;;;;;5043502;28;20227;-69
2023/12/30 05:08:28;;;;;;;1.90;1.80;;;8.40;57.50;;;;;;5048934;28;20217;-69
2023/12/30 05:10:55;;;;;;;2.60;2.40;;;8.40;57.00;;;;;;5043684;28;20297;-69
2023/12/30 05:13:21;;;;;;;2.10;2.00;;;8.40;56.50;;;;;;5047667;28;20636;-69
2023/12/30 05:15:48;;;;;;;2.40;2.20;;;8.50;56.50;;;;;;5044201;28;20217;-69
2023/12/30 05:18:15;;;;;;;2.30;2.10;;;8.50;56.50;;;;;;5048317;28;20727;-68
2023/12/30 05:20:41;;;;;;;2.47;1.90;;;8.40;56.00;;;;;;5050689;28;20213;-69
2023/12/30 05:23:08;;;;;;;2.00;1.90;;;8.40;56.10;;;;;;5044251;28;20266;-68
2023/12/30 05:25:34;;;;;;;3.63;1.90;;;8.50;55.80;;;;;;5048715;28;20237;-68
2023/12/30 05:28:01;;;;;;;2.33;2.13;;;8.50;56.20;;;;;;5046492;28;20256;-68
2023/12/30 05:30:28;;;;;;;2.30;2.10;;;8.50;55.60;;;;;;5043308;28;20841;-68
2023/12/30 05:32:55;;;;;;;1.90;1.80;;;8.60;55.50;;;;;;5050780;28;20214;-68
2023/12/30 05:35:21;;;;;;;2.00;1.90;;;8.70;55.50;;;;;;5039093;28;20657;-69
2023/12/30 05:37:48;;;;;;;2.40;2.20;;;8.70;55.70;;;;;;5049616;28;20264;-69
2023/12/30 05:40:13;;;;;;;2.13;1.90;;;8.70;56.00;;;;;;5047627;28;20264;-69
2023/12/30 05:42:40;;;;;;;2.30;2.20;;;8.70;55.70;;;;;;5049116;28;20212;-69
2023/12/30 05:45:06;;;;;;;2.27;2.07;;;8.70;55.60;;;;;;5046724;28;20265;-69
2023/12/30 05:47:33;;;;;;;2.10;2.00;;;8.70;55.70;;;;;;5050837;28;20255;-69
2023/12/30 05:49:59;;;;;;;2.33;2.10;;;8.70;55.90;;;;;;5052952;28;20509;-69
2023/12/30 05:52:26;;;;;;;2.30;2.10;;;8.60;56.00;;;;;;5045716;28;20260;-69
2023/12/30 05:54:52;;;;;;;2.70;2.30;;;8.70;56.10;;;;;;5055334;28;20201;-69
2023/12/30 05:57:19;;;;;;;2.30;2.10;;;8.80;55.90;;;;;;5046509;28;20302;-68
2023/12/30 05:59:45;;;;;;;2.53;2.10;;;8.80;55.90;;;;;;5052397;28;20209;-69
2023/12/30 06:02:12;;;;;;;3.03;2.27;;;8.80;55.90;;;;;;5054995;28;20223;-69
2023/12/30 06:04:38;;;;;;;3.03;2.50;;;8.70;55.90;;;;;;5042809;28;20747;-69
2023/12/30 06:07:04;;;;;;;2.43;2.23;;;8.80;56.20;;;;;;5051686;28;20214;-69
2023/12/30 06:09:32;;;;;;;2.80;2.60;;;8.80;55.90;;;;;;5054992;28;20244;-69
2023/12/30 06:11:59;;;;;;;2.50;2.30;;;8.80;56.10;;;;;;5046397;28;20215;-69
2023/12/30 06:14:25;;;;;;;2.57;2.30;;;8.80;55.90;;;;;;5052650;28;20202;-69
2023/12/30 06:16:52;;;;;;;2.40;2.20;;;8.80;56.10;;;;;;5052201;28;20652;-69
2023/12/30 06:19:18;;;;;;;2.50;2.30;;;8.80;56.30;;;;;;5043616;28;20262;-69
2023/12/30 06:21:45;;;;;;;2.50;2.30;;;8.80;56.60;;;;;;5043283;28;20248;-69
2023/12/30 06:24:11;;;;;;;3.30;2.60;;;8.80;56.60;;;;;;5050105;28;20633;-69
2023/12/30 06:26:38;;;;;;;3.23;2.93;;;8.80;56.80;;;;;;5048937;28;20229;-69
2023/12/30 06:29:04;;;;;;;4.40;2.97;;;8.80;57.10;;;;;;5050007;28;20801;-69
2023/12/30 06:31:31;;;;;;;2.87;2.60;;;8.80;57.20;;;;;;5054161;28;20209;-69
2023/12/30 06:33:57;;;;;;;2.80;2.60;;;8.80;57.40;;;;;;5051459;28;20213;-69
2023/12/30 06:36:24;;;;;;;3.10;2.87;;;8.70;57.80;;;;;;5050943;28;20261;-69
2023/12/30 06:38:50;;;;;;;3.27;2.90;;;8.70;57.80;;;;;;5050183;28;20275;-68
2023/12/30 06:41:18;;;;;;;4.53;3.73;;;8.70;57.80;;;;;;5045782;28;20650;-68
2023/12/30 06:43:45;;;;;;;3.40;3.20;;;8.60;58.30;;;;;;5053675;28;20657;-69
2023/12/30 06:46:11;;;;;;;3.20;2.90;;;8.60;57.80;;;;;;5046294;28;20281;-68
2023/12/30 06:48:38;;;;;;;3.00;2.80;;;8.50;58.20;;;;;;5045714;28;20205;-69
2023/12/30 06:51:04;;;;;;;3.73;2.93;;;8.50;58.50;;;;;;5051150;28;20201;-69
2023/12/30 06:53:31;;;;;;;3.13;2.67;;;8.50;59.00;;;;;;5045635;28;20206;-68
2023/12/30 06:55:57;;;;;;;3.40;3.10;;;8.50;58.60;;;;;;5051129;28;21130;-69
2023/12/30 06:58:24;;;;;;;3.10;2.60;;;8.50;58.60;;;;;;5044105;28;20312;-69
2023/12/30 07:00:50;;;;;;;3.37;2.90;;;8.60;58.40;;;;;;5048770;28;20635;-69
2023/12/30 07:03:17;;;;;;;3.83;3.53;;;8.60;58.60;;;;;;5050876;28;20268;-69
2023/12/30 07:05:44;;;;;;;3.47;3.17;;;8.60;58.70;;;;;;5052621;28;20253;-69
2023/12/30 07:08:10;;;;;;;3.10;2.90;;;8.60;58.60;;;;;;5052454;28;20638;-69
2023/12/30 07:10:37;;;;;;;2.60;2.40;;;8.50;59.00;;;;;;5053645;28;20395;-69
2023/12/30 07:13:03;;;;;;;3.87;3.53;;;8.50;58.90;;;;;;5045644;28;20253;-68
2023/12/30 07:15:30;;;;;;;3.63;3.23;;;8.40;59.20;;;;;;5053906;28;20280;-69
2023/12/30 07:17:56;;;;;;;3.27;3.07;;;8.40;59.40;;;;;;5051625;28;20249;-70
2023/12/30 07:20:23;;;;;;;3.37;3.00;;;8.40;59.20;;;;;;5046968;28;20845;-69
2023/12/30 07:22:49;;;;;;;3.37;3.10;;;8.40;59.20;;;;;;5046928;28;20204;-69
2023/12/30 07:25:16;;;;;;;3.30;3.00;;;8.40;59.30;;;;;;5052271;28;20751;-69
2023/12/30 07:27:42;;;;;;;4.63;3.43;;;8.40;59.40;;;;;;5043731;28;20205;-69
2023/12/30 07:30:09;;;;;;;3.33;3.13;;;8.30;59.00;;;;;;5053055;28;20721;-69
2023/12/30 07:32:37;;;;;;;3.00;2.80;;;8.30;58.90;;;;;;5051553;28;20224;-70
2023/12/30 07:35:05;;;;;;;3.53;3.07;;;8.30;58.80;;;;;;5050170;28;20232;-69
2023/12/30 07:37:32;;;;;;;3.10;2.90;;;8.30;58.80;;;;;;5052463;28;20202;-69
2023/12/30 07:39:58;;;;;;;2.93;2.73;;;8.40;59.10;;;;;;5050168;28;20230;-69
2023/12/30 07:42:25;;;;;;;3.10;2.80;;;8.30;58.50;;;;;;5048258;28;20209;-69
2023/12/30 07:44:52;;;;;;;3.47;2.70;;;8.30;58.50;;;;;;5051912;28;20249;-69
2023/12/30 07:47:18;;;;;;;3.00;2.63;;;8.30;58.70;;;;;;5051423;28;20275;-69
2023/12/30 07:49:44;;;;;;;2.97;2.77;;;8.40;58.70;;;;;;5049179;28;20221;-69
2023/12/30 07:52:11;;;;;;;3.13;2.80;;;8.30;58.60;;;;;;5052341;28;20737;-69
2023/12/30 07:54:37;;;;;;;2.77;2.30;;;8.30;58.80;;;;;;5051606;28;20228;-69
2023/12/30 07:57:04;;;;;;;3.00;2.80;;;8.20;58.50;;;;;;5050674;28;20664;-68
2023/12/30 07:59:30;;;;;;;3.20;3.00;;;8.30;58.30;;;;;;5051972;28;20253;-69
2023/12/30 08:01:57;;;;;;;3.13;2.80;;;8.30;58.40;;;;;;5053177;28;20205;-69
2023/12/30 08:04:24;;;;;;;5.93;2.70;;;8.30;58.20;;;;;;5053504;28;20259;-69
2023/12/30 08:06:51;;;;;;;4.60;3.60;;;8.30;58.30;;;;;;5050180;28;20228;-69
2023/12/30 08:09:17;;;;;;;2.77;2.57;;;8.30;57.90;;;;;;5047092;28;20209;-70
2023/12/30 08:11:44;;;;;;;2.90;2.70;;;8.30;57.50;;;;;;5051610;28;20292;-69
2023/12/30 08:14:10;;;;;;;2.77;2.57;;;8.30;57.40;;;;;;5046866;28;20216;-69
2023/12/30 08:16:37;;;;;;;2.90;2.70;;;8.40;57.50;;;;;;5051699;28;20233;-69
2023/12/30 08:19:03;;;;;;;2.63;2.50;;;8.50;57.10;;;;;;5045693;28;20245;-69
2023/12/30 08:21:30;;;;;;;2.63;2.43;;;8.50;56.80;;;;;;5043472;28;20209;-69
2023/12/30 08:23:58;;;;;;;2.20;2.10;;;8.70;56.50;;;;;;5050799;28;20237;-70
2023/12/30 08:26:24;;;;;;;2.40;2.30;;;8.90;55.60;;;;;;5050290;28;20226;-69
2023/12/30 08:28:51;;;;;;;3.23;2.30;;;9.10;54.80;;;;;;5042049;28;20633;-69
2023/12/30 08:31:17;;;;;;;2.67;2.47;;;9.20;54.20;;;;;;5046796;28;20206;-68
2023/12/30 08:33:44;;;;;;;2.73;2.47;;;9.50;54.00;;;;;;5036414;28;20264;-68
2023/12/30 08:36:10;;;;;;;2.60;2.40;;;9.80;52.80;;;;;;5043965;28;20269;-68
2023/12/30 08:38:36;;;;;;;2.23;2.13;;;10.10;50.20;;;;;;5043803;28;20242;-68
2023/12/30 08:41:03;;;;;;;2.20;1.70;;;10.40;49.40;;;;;;5045168;28;20212;-68
2023/12/30 08:43:30;;;;;;;2.83;2.10;;;10.60;49.00;;;;;;5046575;28;20255;-68
2023/12/30 08:45:57;;;;;;;2.60;2.50;;;10.70;48.50;;;;;;5045030;28;20852;-68
2023/12/30 08:48:23;;;;;;;2.53;1.90;;;10.90;47.60;;;;;;5041396;28;21144;-69
2023/12/30 08:50:50;;;;;;;2.33;2.13;;;10.90;47.70;;;;;;5046645;28;20202;-68
2023/12/30 08:53:18;;;;;;;2.10;2.00;;;11.10;47.10;;;;;;5048284;28;20217;-69
2023/12/30 08:55:44;;;;;;;2.10;2.00;;;11.30;46.60;;;;;;5043373;28;20591;-69
2023/12/30 08:58:11;;;;;;;2.10;2.00;;;11.70;46.70;;;;;;5051504;28;20297;-68
2023/12/30 09:00:37;;;;;;;1.90;1.80;;;11.90;45.50;;;;;;5050774;28;20203;-69
2023/12/30 09:03:04;;;;;;;2.07;1.90;;;12.20;44.40;;;;;;5050199;28;20281;-68
2023/12/30 09:05:32;;;;;;;2.00;1.80;;;12.30;44.70;;;;;;5048611;28;20236;-68
2023/12/30 09:07:58;;;;;;;2.00;1.90;;;12.50;44.00;;;;;;5047918;28;20214;-67
2023/12/30 09:10:25;;;;;;;1.80;1.70;;;12.70;43.20;;;;;;5041489;28;20553;-68
2023/12/30 09:12:51;;;;;;;2.47;2.00;;;12.70;42.90;;;;;;5042416;28;20202;-67
2023/12/30 09:15:18;;;;;;;2.43;1.80;;;13.20;44.50;;;;;;5046228;28;20230;-67
2023/12/30 09:17:44;;;;;;;2.10;1.90;;;13.70;40.50;;;;;;5049064;28;20278;-68
2023/12/30 09:20:11;;;;;;;2.00;1.80;;;13.40;41.50;;;;;;5042570;28;20257;-68
2023/12/30 09:22:37;;;;;;;2.07;1.73;;;13.40;40.60;;;;;;5044352;28;20205;-68
2023/12/30 09:25:04;;;;;;;1.87;1.77;;;13.40;41.40;;;;;;5049656;28;20260;-68
2023/12/30 09:27:30;;;;;;;1.50;1.40;;;13.40;41.00;;;;;;5037955;28;20206;-67
2023/12/30 09:29:57;;;;;;;2.70;1.93;;;13.70;40.70;;;;;;5049335;28;20245;-68
2023/12/30 09:32:23;;;;;;;1.80;1.70;;;13.80;39.30;;;;;;5039943;28;20332;-67
2023/12/30 09:34:53;;;;;;;2.03;1.90;;;13.60;39.60;;;;;;5047563;28;20216;-67
2023/12/30 09:37:19;;;;;;;1.70;1.60;;;13.90;39.70;;;;;;5036356;28;20285;-69
2023/12/30 09:39:46;;;;;;;1.93;1.53;;;14.10;39.50;;;;;;5041918;28;20217;-69
2023/12/30 09:42:12;;;;;;;1.43;1.33;;;14.00;38.80;;;;;;5044911;28;20684;-67
2023/12/30 09:44:39;;;;;;;2.63;1.50;;;14.10;38.60;;;;;;5046962;28;20223;-68
2023/12/30 09:47:07;;;;;;;1.70;1.60;;;14.00;38.10;;;;;;5043545;28;20210;-67
2023/12/30 09:49:34;;;;;;;1.67;1.57;;;13.40;39.40;;;;;;5037124;28;20689;-68
2023/12/30 09:52:02;;;;;;;3.33;1.53;;;13.70;38.80;;;;;;5048248;28;20248;-68
2023/12/30 09:54:29;;;;;;;2.00;1.50;;;14.10;38.80;;;;;;5041668;28;20208;-67
2023/12/30 09:56:55;;;;;;;1.47;1.37;;;14.00;37.90;;;;;;5041966;28;20238;-68
2023/12/30 09:59:22;;;;;;;2.30;1.50;;;14.00;38.40;;;;;;5039335;28;20304;-68
2023/12/30 10:01:48;;;;;;;1.60;1.50;;;14.40;37.10;;;;;;5039019;28;20202;-68
2023/12/30 10:04:15;;;;;;;1.30;1.20;;;14.40;37.10;;;;;;5042153;28;20206;-67
2023/12/30 10:06:41;;;;;;;1.80;1.37;;;14.70;36.70;;;;;;5046119;28;21897;-69
2023/12/30 10:09:08;;;;;;;1.57;1.30;;;14.50;36.50;;;;;;5046112;28;20201;-68
2023/12/30 10:11:34;;;;;;;1.40;1.30;;;14.80;36.60;;;;;;5018599;28;20218;-69
2023/12/30 10:14:01;;;;;;;1.43;1.33;;;15.10;35.40;;;;;;5036435;28;20206;-68
2023/12/30 10:16:28;;;;;;;1.53;1.30;;;15.10;35.90;;;;;;5028254;28;20280;-67
2023/12/30 10:18:56;;;;;;;1.63;1.47;;;15.50;35.10;;;;;;5032427;28;20320;-67
2023/12/30 10:21:22;;;;;;;1.60;1.50;;;15.50;34.40;;;;;;5030265;28;20209;-69
2023/12/30 10:23:51;;;;;;;1.40;1.30;;;15.30;35.20;;;;;;5035881;28;20237;-69
2023/12/30 10:26:17;;;;;;;1.67;1.27;;;14.90;35.70;;;;;;5028169;28;20300;-67
2023/12/30 10:28:44;;;;;;;1.87;1.37;;;14.90;35.00;;;;;;5030443;28;20614;-68
2023/12/30 10:31:11;;;;;;;1.53;1.40;;;15.20;35.10;;;;;;5037490;28;20241;-66
2023/12/30 10:33:38;;;;;;;1.30;1.20;;;15.10;34.70;;;;;;5032120;28;20683;-66
2023/12/30 10:36:04;;;;;;;1.50;1.40;;;15.40;34.70;;;;;;5021608;28;20230;-67
2023/12/30 10:38:31;;;;;;;1.60;1.50;;;15.80;34.50;;;;;;5033955;28;20220;-67
2023/12/30 10:40:57;;;;;;;1.40;1.30;;;16.20;33.30;;;;;;5026509;28;20253;-66
2023/12/30 10:43:24;;;;;;;1.63;1.27;;;16.00;33.10;;;;;;5033782;28;20234;-67
2023/12/30 10:45:51;;;;;;;1.58;1.30;;;15.90;33.60;;;;;;5027131;28;20232;-67
2023/12/30 10:48:18;;;;;;;2.13;1.50;;;15.80;33.90;;;;;;5030006;28;20209;-68
2023/12/30 10:50:44;;;;;;;2.70;1.10;;;15.80;33.90;;;;;;5033825;28;20673;-68
2023/12/30 10:53:11;;;;;;;1.45;1.20;;;16.30;32.90;;;;;;5025828;28;20238;-69
2023/12/30 10:55:37;;;;;;;1.30;1.20;;;16.70;32.40;;;;;;5020332;28;20281;-68
2023/12/30 10:58:04;;;;;;;1.38;1.10;;;16.60;33.00;;;;;;5033396;28;20198;-68
2023/12/30 11:00:30;;;;;;;1.05;1.00;;;16.50;32.20;;;;;;5032584;28;20230;-68
2023/12/30 11:02:57;;;;;;;1.02;1.00;;;16.40;32.10;;;;;;5042318;28;20202;-68
2023/12/30 11:05:24;;;;;;;1.35;1.25;;;16.30;33.10;;;;;;5019982;28;20297;-68
2023/12/30 11:07:51;;;;;;;1.20;1.20;;;16.30;32.70;;;;;;5025230;28;20285;-68
2023/12/30 11:10:17;;;;;;;0.90;0.90;;;15.80;33.90;;;;;;5027312;28;20206;-69
2023/12/30 11:12:44;;;;;;;0.93;0.93;;;15.40;33.50;;;;;;5033861;28;20405;-68
2023/12/30 11:15:10;;;;;;;1.42;1.08;;;15.00;34.70;;;;;;5033872;28;20285;-68
2023/12/30 11:17:37;;;;;;;1.67;1.13;;;15.00;34.90;;;;;;5034035;28;20214;-68
2023/12/30 11:20:03;;;;;;;1.38;1.15;;;14.80;35.00;;;;;;5033844;28;20262;-68
2023/12/30 11:22:30;;;;;;;1.20;1.13;;;15.30;33.80;;;;;;5031285;28;20214;-68
2023/12/30 11:24:56;;;;;;;1.43;1.20;;;14.70;34.70;;;;;;5033524;28;20716;-67
2023/12/30 11:27:22;;;;;;;1.23;1.00;;;14.90;34.80;;;;;;5024982;28;20251;-68
2023/12/30 11:29:49;;;;;;;1.60;1.27;;;15.00;34.00;;;;;;5027696;28;20238;-68
2023/12/30 11:32:15;;;;;;;1.10;1.10;;;14.70;34.70;;;;;;5032528;28;20693;-68
2023/12/30 11:34:42;;;;;;;1.20;1.10;;;15.30;33.40;;;;;;5033653;28;20210;-68
2023/12/30 11:37:09;;;;;;;1.33;1.20;;;15.70;32.60;;;;;;5033906;28;20241;-68
2023/12/30 11:39:38;;;;;;;1.27;1.20;;;16.90;30.70;;;;;;5030484;28;20710;-68
2023/12/30 11:42:06;;;;;;;1.20;1.10;;;17.50;30.00;;;;;;5034336;28;20214;-68
2023/12/30 11:44:32;;;;;;;1.20;1.10;;;18.60;28.90;;;;;;5030165;28;20202;-68
2023/12/30 11:46:59;;;;;;;1.20;1.10;;;17.60;29.50;;;;;;5024084;28;20218;-68
2023/12/30 11:49:25;;;;;;;1.20;1.20;;;16.30;32.00;;;;;;5027682;28;20699;-68
2023/12/30 11:51:53;;;;;;;1.30;1.20;;;15.90;32.40;;;;;;5032347;28;20692;-68
2023/12/30 11:54:20;;;;;;;2.10;1.30;;;16.60;31.50;;;;;;5031510;28;20229;-68
2023/12/30 11:56:46;;;;;;;1.40;1.30;;;15.80;31.40;;;;;;5030138;28;20226;-68
2023/12/30 11:59:13;;;;;;;1.53;1.20;;;17.60;29.60;;;;;;5032122;28;20226;-68
2023/12/30 12:01:39;;;;;;;1.10;1.10;;;18.00;29.20;;;;;;5032053;28;20242;-68
2023/12/30 12:04:06;;;;;;;2.30;1.20;;;17.70;29.50;;;;;;5029350;28;20264;-68
2023/12/30 12:06:32;;;;;;;1.20;1.20;;;17.00;30.00;;;;;;5026063;28;20226;-68
2023/12/30 12:08:59;;;;;;;1.97;1.20;;;16.00;31.10;;;;;;5029817;28;20209;-68
2023/12/30 12:11:25;;;;;;;1.67;1.13;;;15.80;32.40;;;;;;5028842;28;20622;-67
2023/12/30 12:13:52;;;;;;;1.20;1.10;;;14.90;33.50;;;;;;5021876;28;20252;-68
2023/12/30 12:16:18;;;;;;;1.70;1.00;;;14.70;34.40;;;;;;5025264;28;20231;-68
2023/12/30 12:18:45;;;;;;;1.40;1.20;;;14.90;34.30;;;;;;5020110;28;20677;-68
2023/12/30 12:21:11;;;;;;;1.30;1.20;;;14.10;34.60;;;;;;5014075;28;20325;-68
2023/12/30 12:23:38;;;;;;;2.13;1.17;;;14.20;35.10;;;;;;5021111;28;20210;-68
2023/12/30 12:26:04;;;;;;;1.90;1.10;;;14.40;34.90;;;;;;5032924;28;20627;-67
2023/12/30 12:28:31;;;;;;;1.43;0.90;;;14.20;35.00;;;;;;5024165;28;20257;-67
2023/12/30 12:30:59;;;;;;;0.97;0.97;;;14.20;35.10;;;;;;5020538;28;20290;-67
2023/12/30 12:33:26;;;;;;;1.30;1.20;;;14.00;35.60;;;;;;5024941;28;20218;-68
2023/12/30 12:35:52;;;;;;;1.17;1.10;;;13.80;36.00;;;;;;5027368;28;20259;-68
2023/12/30 12:38:19;;;;;;;1.13;1.10;;;13.90;35.70;;;;;;5027558;28;20235;-68
2023/12/30 12:40:45;;;;;;;1.30;1.20;;;13.80;35.50;;;;;;5029449;28;20253;-68
2023/12/30 12:43:12;;;;;;;1.30;1.20;;;13.90;36.00;;;;;;5025743;28;20210;-67
2023/12/30 12:45:38;;;;;;;2.03;1.20;;;13.90;35.50;;;;;;5026577;28;20719;-68
2023/12/30 12:48:05;;;;;;;1.43;1.33;;;13.60;35.80;;;;;;5023523;28;20244;-68